sensor_id;sensor_type;location;lat;lon;timestamp;pressure;altitude;pressure_sealevel;temperature;humidity
77005;BME280;67261;53.132;18.006;2023-07-13T00:02:03;100676.05;;;18.46;80.44
77005;BME280;67261;53.132;18.006;2023-07-13T00:04:30;100670.72;;;18.43;80.42
77005;BME280;67261;53.132;18.006;2023-07-13T00:06:57;100674.07;;;18.38;80.47
77005;BME280;67261;53.132;18.006;2023-07-13T00:09:23;100679.52;;;18.34;80.56
77005;BME280;67261;53.132;18.006;2023-07-13T00:11:54;100680.63;;;18.30;80.56
77005;BME280;67261;53.132;18.006;2023-07-13T00:14:26;100681.57;;;18.28;80.59
77005;BME280;67261;53.132;18.006;2023-07-13T00:16:53;100686.20;;;18.27;80.56
77005;BME280;67261;53.132;18.006;2023-07-13T00:19:20;100683.56;;;18.25;80.51
77005;BME280;67261;53.132;18.006;2023-07-13T00:21:46;100683.88;;;18.20;80.38
77005;BME280;67261;53.132;18.006;2023-07-13T00:24:15;100685.20;;;18.17;80.64
77005;BME280;67261;53.132;18.006;2023-07-13T00:26:45;100686.34;;;18.15;80.60
77005;BME280;67261;53.132;18.006;2023-07-13T00:29:13;100693.00;;;18.12;80.53
77005;BME280;67261;53.132;18.006;2023-07-13T00:31:40;100688.50;;;18.10;80.72
77005;BME280;67261;53.132;18.006;2023-07-13T00:34:07;100690.09;;;18.07;80.59
77005;BME280;67261;53.132;18.006;2023-07-13T00:36:34;100699.10;;;18.07;80.72
77005;BME280;67261;53.132;18.006;2023-07-13T00:39:00;100699.97;;;18.05;80.73
77005;BME280;67261;53.132;18.006;2023-07-13T00:41:26;100697.06;;;18.04;80.62
77005;BME280;67261;53.132;18.006;2023-07-13T00:43:54;100704.02;;;18.03;80.62
77005;BME280;67261;53.132;18.006;2023-07-13T00:46:27;100711.73;;;18.00;80.73
77005;BME280;67261;53.132;18.006;2023-07-13T00:48:59;100711.48;;;17.97;80.72
77005;BME280;67261;53.132;18.006;2023-07-13T00:51:31;100711.14;;;17.94;80.78
77005;BME280;67261;53.132;18.006;2023-07-13T00:54:04;100717.94;;;17.92;80.71
77005;BME280;67261;53.132;18.006;2023-07-13T00:56:32;100723.48;;;17.90;80.83
77005;BME280;67261;53.132;18.006;2023-07-13T00:59:02;100734.17;;;17.89;80.80
77005;BME280;67261;53.132;18.006;2023-07-13T01:01:29;100733.86;;;17.87;80.84
77005;BME280;67261;53.132;18.006;2023-07-13T01:03:55;100744.23;;;17.88;80.84
77005;BME280;67261;53.132;18.006;2023-07-13T01:06:23;100747.33;;;17.86;80.86
77005;BME280;67261;53.132;18.006;2023-07-13T01:08:49;100737.90;;;17.84;81.00
77005;BME280;67261;53.132;18.006;2023-07-13T01:11:20;100736.61;;;17.82;81.09
77005;BME280;67261;53.132;18.006;2023-07-13T01:13:48;100736.98;;;17.82;81.05
77005;BME280;67261;53.132;18.006;2023-07-13T01:16:27;100730.95;;;17.81;81.08
77005;BME280;67261;53.132;18.006;2023-07-13T01:18:55;100734.50;;;17.81;80.92
77005;BME280;67261;53.132;18.006;2023-07-13T01:21:27;100723.35;;;17.82;81.02
77005;BME280;67261;53.132;18.006;2023-07-13T01:23:54;100722.00;;;17.83;80.99
77005;BME280;67261;53.132;18.006;2023-07-13T01:26:21;100712.91;;;17.82;80.97
77005;BME280;67261;53.132;18.006;2023-07-13T01:28:48;100708.58;;;17.83;80.75
77005;BME280;67261;53.132;18.006;2023-07-13T01:31:14;100712.92;;;17.84;80.93
77005;BME280;67261;53.132;18.006;2023-07-13T01:33:42;100715.52;;;17.83;80.81
77005;BME280;67261;53.132;18.006;2023-07-13T01:36:10;100723.89;;;17.82;80.79
77005;BME280;67261;53.132;18.006;2023-07-13T01:38:38;100728.42;;;17.81;80.75
77005;BME280;67261;53.132;18.006;2023-07-13T01:41:04;100731.45;;;17.82;80.76
77005;BME280;67261;53.132;18.006;2023-07-13T01:43:31;100731.65;;;17.81;80.64
77005;BME280;67261;53.132;18.006;2023-07-13T01:45:59;100731.77;;;17.79;80.58
77005;BME280;67261;53.132;18.006;2023-07-13T01:48:26;100736.14;;;17.77;80.66
77005;BME280;67261;53.132;18.006;2023-07-13T01:50:52;100745.64;;;17.76;80.60
77005;BME280;67261;53.132;18.006;2023-07-13T01:53:19;100756.70;;;17.75;80.80
77005;BME280;67261;53.132;18.006;2023-07-13T01:55:45;100758.45;;;17.75;80.81
77005;BME280;67261;53.132;18.006;2023-07-13T01:58:12;100757.95;;;17.76;80.77
77005;BME280;67261;53.132;18.006;2023-07-13T02:00:39;100752.25;;;17.76;80.93
77005;BME280;67261;53.132;18.006;2023-07-13T02:03:07;100747.33;;;17.75;80.84
77005;BME280;67261;53.132;18.006;2023-07-13T02:05:34;100744.31;;;17.75;80.90
77005;BME280;67261;53.132;18.006;2023-07-13T02:08:01;100741.46;;;17.75;80.75
77005;BME280;67261;53.132;18.006;2023-07-13T02:10:28;100740.08;;;17.73;80.98
77005;BME280;67261;53.132;18.006;2023-07-13T02:12:54;100738.71;;;17.70;80.96
77005;BME280;67261;53.132;18.006;2023-07-13T02:15:21;100742.34;;;17.70;81.08
77005;BME280;67261;53.132;18.006;2023-07-13T02:17:48;100738.13;;;17.69;80.91
77005;BME280;67261;53.132;18.006;2023-07-13T02:20:14;100732.09;;;17.67;80.98
77005;BME280;67261;53.132;18.006;2023-07-13T02:22:43;100730.23;;;17.68;80.90
77005;BME280;67261;53.132;18.006;2023-07-13T02:25:10;100725.73;;;17.68;81.02
77005;BME280;67261;53.132;18.006;2023-07-13T02:27:37;100720.53;;;17.68;80.84
77005;BME280;67261;53.132;18.006;2023-07-13T02:30:03;100720.83;;;17.69;80.87
77005;BME280;67261;53.132;18.006;2023-07-13T02:32:30;100718.31;;;17.70;80.80
77005;BME280;67261;53.132;18.006;2023-07-13T02:34:57;100720.91;;;17.71;80.76
77005;BME280;67261;53.132;18.006;2023-07-13T02:37:23;100719.89;;;17.72;80.75
77005;BME280;67261;53.132;18.006;2023-07-13T02:39:50;100723.56;;;17.72;80.81
77005;BME280;67261;53.132;18.006;2023-07-13T02:42:17;100724.02;;;17.73;80.81
77005;BME280;67261;53.132;18.006;2023-07-13T02:44:45;100729.50;;;17.72;80.69
77005;BME280;67261;53.132;18.006;2023-07-13T02:47:12;100731.55;;;17.72;80.80
77005;BME280;67261;53.132;18.006;2023-07-13T02:49:39;100730.25;;;17.73;80.66
77005;BME280;67261;53.132;18.006;2023-07-13T02:52:06;100726.66;;;17.73;80.69
77005;BME280;67261;53.132;18.006;2023-07-13T02:54:32;100724.84;;;17.72;80.63
77005;BME280;67261;53.132;18.006;2023-07-13T02:57:01;100721.40;;;17.70;80.62
77005;BME280;67261;53.132;18.006;2023-07-13T02:59:28;100721.60;;;17.69;80.59
77005;BME280;67261;53.132;18.006;2023-07-13T03:01:55;100721.69;;;17.69;80.55
77005;BME280;67261;53.132;18.006;2023-07-13T03:04:21;100714.55;;;17.69;80.52
77005;BME280;67261;53.132;18.006;2023-07-13T03:06:48;100715.11;;;17.68;80.43
77005;BME280;67261;53.132;18.006;2023-07-13T03:09:15;100718.78;;;17.69;80.36
77005;BME280;67261;53.132;18.006;2023-07-13T03:11:44;100720.45;;;17.70;80.41
77005;BME280;67261;53.132;18.006;2023-07-13T03:14:22;100715.80;;;17.71;80.28
77005;BME280;67261;53.132;18.006;2023-07-13T03:16:50;100716.08;;;17.73;80.30
77005;BME280;67261;53.132;18.006;2023-07-13T03:19:19;100713.57;;;17.73;80.25
77005;BME280;67261;53.132;18.006;2023-07-13T03:21:51;100715.91;;;17.76;80.24
77005;BME280;67261;53.132;18.006;2023-07-13T03:24:17;100714.72;;;17.81;79.99
77005;BME280;67261;53.132;18.006;2023-07-13T03:26:44;100718.21;;;17.87;79.96
77005;BME280;67261;53.132;18.006;2023-07-13T03:29:11;100724.66;;;17.89;79.87
77005;BME280;67261;53.132;18.006;2023-07-13T03:31:39;100730.64;;;17.94;79.80
77005;BME280;67261;53.132;18.006;2023-07-13T03:34:07;100729.95;;;17.99;79.80
77005;BME280;67261;53.132;18.006;2023-07-13T03:36:35;100728.94;;;18.07;79.70
77005;BME280;67261;53.132;18.006;2023-07-13T03:39:04;100729.55;;;18.18;79.37
77005;BME280;67261;53.132;18.006;2023-07-13T03:41:49;100729.28;;;18.28;79.02
77005;BME280;67261;53.132;18.006;2023-07-13T03:44:17;100731.85;;;18.35;78.99
77005;BME280;67261;53.132;18.006;2023-07-13T03:46:45;100740.63;;;18.40;79.06
77005;BME280;67261;53.132;18.006;2023-07-13T03:49:13;100740.31;;;18.44;78.88
77005;BME280;67261;53.132;18.006;2023-07-13T03:51:40;100743.78;;;18.46;78.94
77005;BME280;67261;53.132;18.006;2023-07-13T03:54:06;100744.04;;;18.44;78.78
77005;BME280;67261;53.132;18.006;2023-07-13T03:56:33;100747.17;;;18.44;78.88
77005;BME280;67261;53.132;18.006;2023-07-13T03:59:00;100752.45;;;18.43;78.74
77005;BME280;67261;53.132;18.006;2023-07-13T04:01:29;100750.39;;;18.44;78.65
77005;BME280;67261;53.132;18.006;2023-07-13T04:03:55;100754.20;;;18.45;78.48
77005;BME280;67261;53.132;18.006;2023-07-13T04:06:28;100760.55;;;18.49;78.40
77005;BME280;67261;53.132;18.006;2023-07-13T04:08:57;100765.05;;;18.60;78.19
77005;BME280;67261;53.132;18.006;2023-07-13T04:11:29;100765.69;;;18.73;77.86
77005;BME280;67261;53.132;18.006;2023-07-13T04:13:56;100764.05;;;18.91;77.58
77005;BME280;67261;53.132;18.006;2023-07-13T04:16:23;100764.45;;;19.00;77.33
77005;BME280;67261;53.132;18.006;2023-07-13T04:18:53;100762.95;;;19.14;77.15
77005;BME280;67261;53.132;18.006;2023-07-13T04:21:30;100761.11;;;19.40;76.73
77005;BME280;67261;53.132;18.006;2023-07-13T04:23:57;100751.73;;;20.07;75.18
77005;BME280;67261;53.132;18.006;2023-07-13T04:26:24;100747.84;;;20.08;74.77
77005;BME280;67261;53.132;18.006;2023-07-13T04:28:54;100745.79;;;20.52;74.19
77005;BME280;67261;53.132;18.006;2023-07-13T04:31:21;100742.91;;;22.31;70.91
77005;BME280;67261;53.132;18.006;2023-07-13T04:33:48;100752.64;;;23.88;68.40
77005;BME280;67261;53.132;18.006;2023-07-13T04:36:16;100762.09;;;26.03;65.07
77005;BME280;67261;53.132;18.006;2023-07-13T04:38:43;100761.35;;;27.87;62.17
77005;BME280;67261;53.132;18.006;2023-07-13T04:41:09;100757.08;;;27.72;62.23
77005;BME280;67261;53.132;18.006;2023-07-13T04:43:36;100757.27;;;27.40;62.09
77005;BME280;67261;53.132;18.006;2023-07-13T04:46:08;100756.39;;;28.31;59.90
77005;BME280;67261;53.132;18.006;2023-07-13T04:48:35;100769.44;;;30.17;56.26
77005;BME280;67261;53.132;18.006;2023-07-13T04:51:02;100774.67;;;31.72;54.15
77005;BME280;67261;53.132;18.006;2023-07-13T04:53:29;100782.65;;;33.15;51.64
77005;BME280;67261;53.132;18.006;2023-07-13T04:55:56;100791.15;;;34.39;49.76
77005;BME280;67261;53.132;18.006;2023-07-13T04:58:24;100798.39;;;35.04;47.94
77005;BME280;67261;53.132;18.006;2023-07-13T05:00:50;100791.20;;;33.87;48.23
77005;BME280;67261;53.132;18.006;2023-07-13T05:03:17;100794.30;;;33.04;48.13
77005;BME280;67261;53.132;18.006;2023-07-13T05:05:54;100801.89;;;32.34;48.24
77005;BME280;67261;53.132;18.006;2023-07-13T05:08:21;100804.14;;;32.05;47.45
77005;BME280;67261;53.132;18.006;2023-07-13T05:10:48;100806.00;;;31.92;46.87
77005;BME280;67261;53.132;18.006;2023-07-13T05:13:14;100805.36;;;32.30;46.28
77005;BME280;67261;53.132;18.006;2023-07-13T05:15:41;100803.86;;;31.81;46.36
77005;BME280;67261;53.132;18.006;2023-07-13T05:18:07;100807.27;;;31.02;46.91
77005;BME280;67261;53.132;18.006;2023-07-13T05:20:34;100803.86;;;30.35;46.38
77005;BME280;67261;53.132;18.006;2023-07-13T05:23:00;100803.38;;;30.03;45.69
77005;BME280;67261;53.132;18.006;2023-07-13T05:25:26;100795.34;;;31.33;44.13
77005;BME280;67261;53.132;18.006;2023-07-13T05:27:53;100797.99;;;31.51;43.56
77005;BME280;67261;53.132;18.006;2023-07-13T05:30:19;100802.92;;;32.83;41.79
77005;BME280;67261;53.132;18.006;2023-07-13T05:32:45;100811.88;;;34.70;39.47
77005;BME280;67261;53.132;18.006;2023-07-13T05:35:13;100809.16;;;36.14;37.58
77005;BME280;67261;53.132;18.006;2023-07-13T05:37:40;100817.20;;;37.18;35.19
77005;BME280;67261;53.132;18.006;2023-07-13T05:40:07;100819.06;;;38.25;32.87
77005;BME280;67261;53.132;18.006;2023-07-13T05:42:35;100823.52;;;39.30;31.50
77005;BME280;67261;53.132;18.006;2023-07-13T05:45:03;100824.27;;;39.63;30.73
77005;BME280;67261;53.132;18.006;2023-07-13T05:47:32;100816.80;;;38.70;30.49
77005;BME280;67261;53.132;18.006;2023-07-13T05:49:59;100808.73;;;37.73;30.43
77005;BME280;67261;53.132;18.006;2023-07-13T05:52:25;100808.70;;;38.47;29.30
77005;BME280;67261;53.132;18.006;2023-07-13T05:54:52;100812.36;;;39.12;28.43
77005;BME280;67261;53.132;18.006;2023-07-13T05:57:19;100812.73;;;39.67;27.92
77005;BME280;67261;53.132;18.006;2023-07-13T05:59:46;100811.69;;;40.03;27.71
77005;BME280;67261;53.132;18.006;2023-07-13T06:02:13;100816.11;;;38.69;28.41
77005;BME280;67261;53.132;18.006;2023-07-13T06:04:40;100818.40;;;37.76;28.36
77005;BME280;67261;53.132;18.006;2023-07-13T06:07:06;100823.16;;;37.74;28.35
77005;BME280;67261;53.132;18.006;2023-07-13T06:09:32;100816.05;;;38.15;27.38
77005;BME280;67261;53.132;18.006;2023-07-13T06:11:58;100813.59;;;38.34;27.13
77005;BME280;67261;53.132;18.006;2023-07-13T06:14:25;100815.30;;;39.26;26.69
77005;BME280;67261;53.132;18.006;2023-07-13T06:16:51;100810.38;;;39.62;26.32
77005;BME280;67261;53.132;18.006;2023-07-13T06:19:17;100808.16;;;39.54;25.59
77005;BME280;67261;53.132;18.006;2023-07-13T06:21:44;100808.89;;;39.36;25.21
77005;BME280;67261;53.132;18.006;2023-07-13T06:24:10;100812.45;;;39.21;25.30
77005;BME280;67261;53.132;18.006;2023-07-13T06:26:37;100817.00;;;39.19;25.60
77005;BME280;67261;53.132;18.006;2023-07-13T06:29:04;100819.34;;;39.33;25.64
77005;BME280;67261;53.132;18.006;2023-07-13T06:31:31;100816.02;;;39.58;25.16
77005;BME280;67261;53.132;18.006;2023-07-13T06:33:57;100811.23;;;39.74;24.97
77005;BME280;67261;53.132;18.006;2023-07-13T06:36:24;100811.52;;;40.00;24.96
77005;BME280;67261;53.132;18.006;2023-07-13T06:38:50;100814.11;;;40.42;24.51
77005;BME280;67261;53.132;18.006;2023-07-13T06:41:16;100813.82;;;40.71;24.31
77005;BME280;67261;53.132;18.006;2023-07-13T06:43:43;100811.69;;;39.87;24.91
77005;BME280;67261;53.132;18.006;2023-07-13T06:46:09;100818.20;;;38.25;25.62
77005;BME280;67261;53.132;18.006;2023-07-13T06:48:36;100813.48;;;36.97;26.69
77005;BME280;67261;53.132;18.006;2023-07-13T06:51:02;100822.86;;;36.35;27.31
77005;BME280;67261;53.132;18.006;2023-07-13T06:53:28;100824.34;;;35.61;28.51
77005;BME280;67261;53.132;18.006;2023-07-13T06:56:00;100834.70;;;34.85;29.58
77005;BME280;67261;53.132;18.006;2023-07-13T06:58:28;100832.29;;;34.21;29.99
77005;BME280;67261;53.132;18.006;2023-07-13T07:00:59;100836.08;;;33.48;30.39
77005;BME280;67261;53.132;18.006;2023-07-13T07:03:44;100833.30;;;32.76;31.36
77005;BME280;67261;53.132;18.006;2023-07-13T07:06:23;100831.85;;;32.54;32.01
77005;BME280;67261;53.132;18.006;2023-07-13T07:09:02;100830.70;;;32.07;32.44
77005;BME280;67261;53.132;18.006;2023-07-13T07:11:34;100834.58;;;31.54;32.83
77005;BME280;67261;53.132;18.006;2023-07-13T07:14:23;100844.77;;;31.04;33.57
77005;BME280;67261;53.132;18.006;2023-07-13T07:17:05;100853.61;;;30.61;34.27
77005;BME280;67261;53.132;18.006;2023-07-13T07:19:32;100850.84;;;30.17;34.72
77005;BME280;67261;53.132;18.006;2023-07-13T07:22:03;100851.15;;;29.88;35.59
77005;BME280;67261;53.132;18.006;2023-07-13T07:24:30;100845.34;;;29.83;35.83
77005;BME280;67261;53.132;18.006;2023-07-13T07:27:24;100843.78;;;30.00;36.05
77005;BME280;67261;53.132;18.006;2023-07-13T07:31:02;100841.86;;;31.40;35.41
77005;BME280;67261;53.132;18.006;2023-07-13T07:33:46;100839.66;;;32.57;34.82
77005;BME280;67261;53.132;18.006;2023-07-13T07:36:34;100837.04;;;32.94;34.39
77005;BME280;67261;53.132;18.006;2023-07-13T07:39:00;100834.30;;;33.37;34.20
77005;BME280;67261;53.132;18.006;2023-07-13T07:41:28;100839.20;;;34.06;33.44
77005;BME280;67261;53.132;18.006;2023-07-13T07:43:57;100839.31;;;34.93;32.45
77005;BME280;67261;53.132;18.006;2023-07-13T07:46:27;100833.63;;;35.81;31.09
77005;BME280;67261;53.132;18.006;2023-07-13T07:52:10;100837.03;;;36.21;30.20
77005;BME280;67261;53.132;18.006;2023-07-13T07:55:07;100834.90;;;36.13;29.49
77005;BME280;67261;53.132;18.006;2023-07-13T07:58:08;100835.30;;;35.94;29.15
77005;BME280;67261;53.132;18.006;2023-07-13T08:00:53;100831.89;;;35.94;29.31
77005;BME280;67261;53.132;18.006;2023-07-13T08:03:20;100837.68;;;35.76;30.06
77005;BME280;67261;53.132;18.006;2023-07-13T08:05:53;100843.85;;;35.59;30.01
77005;BME280;67261;53.132;18.006;2023-07-13T08:08:23;100844.83;;;35.44;30.20
77005;BME280;67261;53.132;18.006;2023-07-13T08:10:49;100843.61;;;35.46;30.40
77005;BME280;67261;53.132;18.006;2023-07-13T08:13:16;100845.87;;;35.49;29.95
77005;BME280;67261;53.132;18.006;2023-07-13T08:15:43;100841.95;;;35.51;29.70
77005;BME280;67261;53.132;18.006;2023-07-13T08:18:11;100839.91;;;35.59;29.99
77005;BME280;67261;53.132;18.006;2023-07-13T08:20:41;100837.92;;;35.55;29.65
77005;BME280;67261;53.132;18.006;2023-07-13T08:23:09;100839.30;;;35.40;29.11
77005;BME280;67261;53.132;18.006;2023-07-13T08:25:36;100838.91;;;35.19;29.21
77005;BME280;67261;53.132;18.006;2023-07-13T08:28:11;100837.52;;;34.66;29.63
77005;BME280;67261;53.132;18.006;2023-07-13T08:30:38;100834.15;;;34.27;29.75
77005;BME280;67261;53.132;18.006;2023-07-13T08:33:04;100823.23;;;33.76;30.37
77005;BME280;67261;53.132;18.006;2023-07-13T08:35:33;100820.34;;;33.62;30.59
77005;BME280;67261;53.132;18.006;2023-07-13T08:38:00;100818.36;;;33.66;30.69
77005;BME280;67261;53.132;18.006;2023-07-13T08:40:27;100816.27;;;33.66;30.46
77005;BME280;67261;53.132;18.006;2023-07-13T08:42:57;100809.85;;;33.58;30.39
77005;BME280;67261;53.132;18.006;2023-07-13T08:45:46;100813.30;;;33.44;29.52
77005;BME280;67261;53.132;18.006;2023-07-13T08:48:26;100809.54;;;33.39;29.98
77005;BME280;67261;53.132;18.006;2023-07-13T08:51:01;100814.13;;;33.41;29.67
77005;BME280;67261;53.132;18.006;2023-07-13T08:53:39;100807.76;;;33.19;29.64
77005;BME280;67261;53.132;18.006;2023-07-13T08:56:11;100809.40;;;32.98;29.89
77005;BME280;67261;53.132;18.006;2023-07-13T08:58:42;100819.17;;;32.44;30.60
77005;BME280;67261;53.132;18.006;2023-07-13T09:01:22;100826.29;;;31.83;31.05
77005;BME280;67261;53.132;18.006;2023-07-13T09:03:59;100832.21;;;31.16;31.22
77005;BME280;67261;53.132;18.006;2023-07-13T09:06:34;100836.24;;;30.47;31.85
77005;BME280;67261;53.132;18.006;2023-07-13T09:09:14;100834.52;;;29.83;32.47
77005;BME280;67261;53.132;18.006;2023-07-13T09:11:59;100836.34;;;29.37;33.46
77005;BME280;67261;53.132;18.006;2023-07-13T09:14:45;100833.87;;;29.06;34.03
77005;BME280;67261;53.132;18.006;2023-07-13T09:17:33;100828.58;;;29.06;34.39
77005;BME280;67261;53.132;18.006;2023-07-13T09:20:17;100822.49;;;29.03;34.96
77005;BME280;67261;53.132;18.006;2023-07-13T09:22:46;100817.20;;;29.19;34.79
77005;BME280;67261;53.132;18.006;2023-07-13T09:27:52;100827.60;;;29.43;35.13
77005;BME280;67261;53.132;18.006;2023-07-13T09:30:28;100823.29;;;29.64;34.91
77005;BME280;67261;53.132;18.006;2023-07-13T09:32:56;100827.75;;;29.72;35.57
77005;BME280;67261;53.132;18.006;2023-07-13T09:35:29;100825.66;;;29.77;35.05
77005;BME280;67261;53.132;18.006;2023-07-13T09:38:22;100826.07;;;29.92;34.85
77005;BME280;67261;53.132;18.006;2023-07-13T09:43:36;100830.98;;;30.37;34.47
77005;BME280;67261;53.132;18.006;2023-07-13T09:46:20;100829.33;;;30.61;34.27
77005;BME280;67261;53.132;18.006;2023-07-13T09:48:49;100828.79;;;30.85;33.64
77005;BME280;67261;53.132;18.006;2023-07-13T09:51:16;100826.04;;;31.08;33.13
77005;BME280;67261;53.132;18.006;2023-07-13T09:53:43;100822.98;;;31.26;33.11
77005;BME280;67261;53.132;18.006;2023-07-13T09:56:25;100815.96;;;31.42;32.55
77005;BME280;67261;53.132;18.006;2023-07-13T09:58:52;100811.42;;;31.52;31.88
77005;BME280;67261;53.132;18.006;2023-07-13T10:01:34;100807.21;;;31.53;31.68
77005;BME280;67261;53.132;18.006;2023-07-13T10:04:01;100803.48;;;31.44;31.51
77005;BME280;67261;53.132;18.006;2023-07-13T10:06:28;100805.09;;;31.33;31.98
77005;BME280;67261;53.132;18.006;2023-07-13T10:08:56;100803.77;;;31.28;31.56
77005;BME280;67261;53.132;18.006;2023-07-13T10:11:29;100812.23;;;31.07;31.28
77005;BME280;67261;53.132;18.006;2023-07-13T10:14:02;100808.87;;;30.85;31.58
77005;BME280;67261;53.132;18.006;2023-07-13T10:16:35;100809.20;;;30.61;31.60
77005;BME280;67261;53.132;18.006;2023-07-13T10:19:07;100809.00;;;30.37;31.76
77005;BME280;67261;53.132;18.006;2023-07-13T10:21:42;100814.09;;;30.03;31.99
77005;BME280;67261;53.132;18.006;2023-07-13T10:24:22;100812.19;;;29.83;32.89
77005;BME280;67261;53.132;18.006;2023-07-13T10:32:20;100804.77;;;29.71;33.21
77005;BME280;67261;53.132;18.006;2023-07-13T10:34:51;100807.58;;;29.62;32.30
77005;BME280;67261;53.132;18.006;2023-07-13T10:37:22;100808.92;;;29.53;32.05
77005;BME280;67261;53.132;18.006;2023-07-13T10:39:52;100805.88;;;29.45;31.99
77005;BME280;67261;53.132;18.006;2023-07-13T10:42:32;100805.43;;;29.43;32.42
77005;BME280;67261;53.132;18.006;2023-07-13T10:45:13;100807.56;;;29.44;33.10
77005;BME280;67261;53.132;18.006;2023-07-13T10:47:40;100802.67;;;29.49;33.01
77005;BME280;67261;53.132;18.006;2023-07-13T10:50:19;100802.07;;;29.56;32.99
77005;BME280;67261;53.132;18.006;2023-07-13T10:52:50;100801.14;;;29.75;32.66
77005;BME280;67261;53.132;18.006;2023-07-13T10:58:35;100808.55;;;30.19;32.16
77005;BME280;67261;53.132;18.006;2023-07-13T11:01:16;100805.67;;;30.23;32.07
77005;BME280;67261;53.132;18.006;2023-07-13T11:06:15;100805.27;;;30.18;32.13
77005;BME280;67261;53.132;18.006;2023-07-13T11:11:33;100798.80;;;30.00;31.51
77005;BME280;67261;53.132;18.006;2023-07-13T11:14:25;100803.13;;;30.05;31.68
77005;BME280;67261;53.132;18.006;2023-07-13T11:16:55;100813.05;;;30.15;32.24
77005;BME280;67261;53.132;18.006;2023-07-13T11:19:27;100808.75;;;30.20;32.16
77005;BME280;67261;53.132;18.006;2023-07-13T11:25:20;100810.41;;;30.08;31.67
77005;BME280;67261;53.132;18.006;2023-07-13T11:28:02;100805.69;;;29.74;32.03
77005;BME280;67261;53.132;18.006;2023-07-13T11:38:22;100813.64;;;28.98;32.10
77005;BME280;67261;53.132;18.006;2023-07-13T11:40:50;100812.81;;;28.89;32.77
77005;BME280;67261;53.132;18.006;2023-07-13T11:43:18;100817.14;;;28.80;33.67
77005;BME280;67261;53.132;18.006;2023-07-13T11:45:45;100818.53;;;28.72;34.22
77005;BME280;67261;53.132;18.006;2023-07-13T11:48:27;100815.97;;;28.56;34.40
77005;BME280;67261;53.132;18.006;2023-07-13T11:51:01;100816.16;;;28.45;34.23
77005;BME280;67261;53.132;18.006;2023-07-13T11:53:43;100817.68;;;28.41;34.64
77005;BME280;67261;53.132;18.006;2023-07-13T11:56:11;100816.48;;;28.42;35.61
77005;BME280;67261;53.132;18.006;2023-07-13T11:58:38;100813.11;;;28.50;36.30
77005;BME280;67261;53.132;18.006;2023-07-13T12:01:05;100812.75;;;28.62;36.50
77005;BME280;67261;53.132;18.006;2023-07-13T12:03:35;100810.89;;;28.75;35.58
77005;BME280;67261;53.132;18.006;2023-07-13T12:06:05;100806.42;;;28.88;34.99
77005;BME280;67261;53.132;18.006;2023-07-13T12:08:38;100797.19;;;29.09;34.68
77005;BME280;67261;53.132;18.006;2023-07-13T12:11:15;100793.96;;;29.31;34.72
77005;BME280;67261;53.132;18.006;2023-07-13T12:13:46;100789.19;;;29.47;34.40
77005;BME280;67261;53.132;18.006;2023-07-13T12:16:22;100787.52;;;29.57;34.50
77005;BME280;67261;53.132;18.006;2023-07-13T12:18:53;100791.30;;;29.73;34.97
77005;BME280;67261;53.132;18.006;2023-07-13T12:21:31;100795.86;;;29.91;35.23
77005;BME280;67261;53.132;18.006;2023-07-13T12:23:58;100799.16;;;30.14;34.99
77005;BME280;67261;53.132;18.006;2023-07-13T12:26:28;100797.20;;;30.23;34.42
77005;BME280;67261;53.132;18.006;2023-07-13T12:28:59;100799.94;;;30.21;33.64
77005;BME280;67261;53.132;18.006;2023-07-13T12:34:09;100786.06;;;30.04;32.62
77005;BME280;67261;53.132;18.006;2023-07-13T12:36:41;100792.85;;;29.89;32.39
77005;BME280;67261;53.132;18.006;2023-07-13T12:41:40;100784.13;;;29.56;32.76
77005;BME280;67261;53.132;18.006;2023-07-13T12:44:22;100788.55;;;29.38;32.61
77005;BME280;67261;53.132;18.006;2023-07-13T12:46:54;100784.72;;;29.22;32.47
77005;BME280;67261;53.132;18.006;2023-07-13T12:49:25;100785.11;;;29.05;32.69
77005;BME280;67261;53.132;18.006;2023-07-13T12:51:57;100792.80;;;28.87;32.98
77005;BME280;67261;53.132;18.006;2023-07-13T12:54:26;100790.77;;;28.73;33.25
77005;BME280;67261;53.132;18.006;2023-07-13T12:56:54;100797.11;;;28.60;33.66
77005;BME280;67261;53.132;18.006;2023-07-13T12:59:27;100801.65;;;28.54;33.97
77005;BME280;67261;53.132;18.006;2023-07-13T13:01:58;100803.05;;;28.43;34.04
77005;BME280;67261;53.132;18.006;2023-07-13T13:04:25;100804.23;;;28.36;34.42
77005;BME280;67261;53.132;18.006;2023-07-13T13:07:03;100806.20;;;28.34;34.71
77005;BME280;67261;53.132;18.006;2023-07-13T13:09:32;100808.65;;;28.33;34.86
77005;BME280;67261;53.132;18.006;2023-07-13T13:11:59;100806.50;;;28.26;35.18
77005;BME280;67261;53.132;18.006;2023-07-13T13:14:25;100800.51;;;28.16;35.33
77005;BME280;67261;53.132;18.006;2023-07-13T13:16:52;100801.41;;;28.20;35.24
77005;BME280;67261;53.132;18.006;2023-07-13T13:19:25;100807.45;;;28.20;35.59
77005;BME280;67261;53.132;18.006;2023-07-13T13:21:54;100802.44;;;28.18;36.48
77005;BME280;67261;53.132;18.006;2023-07-13T13:24:26;100799.85;;;28.13;37.82
77005;BME280;67261;53.132;18.006;2023-07-13T13:26:54;100798.48;;;28.05;38.86
77005;BME280;67261;53.132;18.006;2023-07-13T13:29:24;100798.78;;;27.98;39.51
77005;BME280;67261;53.132;18.006;2023-07-13T13:31:51;100801.59;;;27.93;39.91
77005;BME280;67261;53.132;18.006;2023-07-13T13:34:19;100805.98;;;27.85;40.49
77005;BME280;67261;53.132;18.006;2023-07-13T13:36:47;100803.88;;;27.69;40.61